Time;durP1;ratioP1;P1;durP2;ratioP2;P2;SDS_P1;SDS_P2;PMS_P1;PMS_P2;Temp;Humidity;BMP_temperature;BMP_pressure;BME280_temperature;BME280_humidity;BME280_pressure;Samples;Min_cycle;Max_cycle;Signal;HPM_P1;HPM_P2
2023/03/10 00:02:16;;;;;;;;;;;20.60;31.10;;;;;;5134535;27;20551;-68
2023/03/10 00:04:41;;;;;;;;;;;20.60;31.00;;;;;;5134676;27;19954;-68
2023/03/10 00:07:07;;;;;;;;;;;20.60;31.10;;;;;;5134486;27;19920;-68
2023/03/10 00:09:32;;;;;;;;;;;20.50;31.00;;;;;;5135738;27;19970;-70
2023/03/10 00:11:58;;;;;;;;;;;20.60;31.00;;;;;;5134737;27;19967;-69
2023/03/10 00:14:24;;;;;;;;;;;20.60;31.00;;;;;;5134788;27;19958;-69
2023/03/10 00:16:49;;;;;;;;;;;20.60;31.10;;;;;;5135640;27;20294;-69
2023/03/10 00:19:18;;;;;;;;;;;20.60;31.00;;;;;;5134628;27;19928;-71
2023/03/10 00:21:44;;;;;;;;;;;20.60;31.00;;;;;;5134223;27;19927;-70
2023/03/10 00:24:10;;;;;;;;;;;20.60;31.00;;;;;;5134351;27;19919;-68
2023/03/10 00:26:37;;;;;;;;;;;20.50;31.10;;;;;;5134129;27;19941;-68
2023/03/10 00:29:03;;;;;;;;;;;20.60;31.00;;;;;;5134516;27;19919;-68
2023/03/10 00:31:30;;;;;;;;;;;20.50;31.00;;;;;;5133799;27;19927;-68
2023/03/10 00:33:56;;;;;;;;;;;20.50;31.00;;;;;;5134126;27;19919;-68
2023/03/10 00:36:23;;;;;;;;;;;20.50;31.00;;;;;;5134043;27;20055;-70
2023/03/10 00:38:49;;;;;;;;;;;20.50;31.00;;;;;;5135267;27;20335;-69
2023/03/10 00:41:17;;;;;;;;;;;20.50;31.10;;;;;;5133941;27;19972;-68
2023/03/10 00:43:43;;;;;;;;;;;20.50;31.10;;;;;;5134129;27;19923;-69
2023/03/10 00:46:08;;;;;;;;;;;20.50;31.10;;;;;;5134217;27;19919;-68
2023/03/10 00:48:37;;;;;;;;;;;20.50;31.10;;;;;;5135060;27;20405;-68
2023/03/10 00:51:06;;;;;;;;;;;20.50;31.10;;;;;;5133793;27;20294;-68
2023/03/10 00:53:32;;;;;;;;;;;20.50;31.10;;;;;;5135435;27;19919;-68
2023/03/10 00:58:49;;;;;;;;;;;20.40;31.10;;;;;;5151374;27;19915;-68
2023/03/10 01:01:18;;;;;;;;;;;20.50;31.00;;;;;;5150503;27;19942;-69
2023/03/10 01:03:43;;;;;;;;;;;20.50;31.10;;;;;;5150116;27;20382;-68
2023/03/10 01:06:09;;;;;;;;;;;20.50;31.10;;;;;;5133113;27;19945;-68
2023/03/10 01:08:35;;;;;;;;;;;20.50;31.20;;;;;;5151228;27;20418;-68
2023/03/10 01:11:00;;;;;;;;;;;20.40;31.00;;;;;;5149964;27;20002;-68
2023/03/10 01:13:26;;;;;;;;;;;20.40;31.10;;;;;;5149903;27;19923;-67
2023/03/10 01:15:51;;;;;;;;;;;20.50;31.20;;;;;;5150022;27;19919;-68
2023/03/10 01:18:18;;;;;;;;;;;20.50;31.10;;;;;;5149687;27;19923;-68
2023/03/10 01:20:43;;;;;;;;;;;20.50;31.10;;;;;;5149786;27;19966;-69
2023/03/10 01:23:24;;;;;;;;;;;20.50;31.00;;;;;;5149875;27;19968;-68
2023/03/10 01:25:50;;;;;;;;;;;20.50;31.10;;;;;;5149685;27;19927;-68
2023/03/10 01:28:16;;;;;;;;;;;20.50;31.10;;;;;;5149950;27;19923;-68
2023/03/10 01:30:42;;;;;;;;;;;20.50;31.10;;;;;;5149625;27;19926;-69
2023/03/10 01:33:08;;;;;;;;;;;20.50;31.10;;;;;;5149479;27;19919;-68
2023/03/10 01:35:33;;;;;;;;;;;20.50;31.10;;;;;;5150838;27;20423;-69
2023/03/10 01:37:59;;;;;;;;;;;20.50;31.10;;;;;;5149380;27;19927;-68
2023/03/10 01:40:25;;;;;;;;;;;20.60;31.10;;;;;;5149355;27;19919;-69
2023/03/10 01:42:51;;;;;;;;;;;20.50;31.00;;;;;;5149697;27;19974;-71
2023/03/10 01:47:58;;;;;;;;;;;20.50;31.00;;;;;;5062380;27;2001091;-68
2023/03/10 01:50:24;;;;;;;;;;;20.60;31.10;;;;;;5112498;28;20011;-68
2023/03/10 01:52:55;;;;;;;;;;;20.60;31.10;;;;;;5112415;28;20022;-69
2023/03/10 01:55:23;;;;;;;;;;;20.60;31.10;;;;;;5130544;28;20367;-69
2023/03/10 01:57:51;;;;;;;;;;;20.60;31.10;;;;;;5112259;28;20371;-68
2023/03/10 02:00:17;;;;;;;;;;;20.50;31.10;;;;;;5112166;28;19920;-68
2023/03/10 02:02:48;;;;;;;;;;;20.50;31.10;;;;;;5130703;28;20298;-69
2023/03/10 02:05:14;;;;;;;;;;;20.50;31.10;;;;;;5130402;28;19927;-70
2023/03/10 02:07:40;;;;;;;;;;;20.50;31.10;;;;;;5111912;28;19927;-68
2023/03/10 02:10:05;;;;;;;;;;;20.50;31.10;;;;;;5130518;28;19919;-68
2023/03/10 02:12:31;;;;;;;;;;;20.50;31.10;;;;;;5130381;28;19919;-68
2023/03/10 02:14:57;;;;;;;;;;;20.50;31.10;;;;;;5112165;28;20414;-69
2023/03/10 02:17:24;;;;;;;;;;;20.50;31.10;;;;;;5111906;28;19981;-68
2023/03/10 02:20:01;;;;;;;;;;;20.40;31.10;;;;;;5112057;28;19977;-68
2023/03/10 02:22:26;;;;;;;;;;;20.40;31.20;;;;;;5111759;28;20402;-68
2023/03/10 02:27:37;;;;;;;;;;;20.40;31.30;;;;;;5110323;27;19912;-68
2023/03/10 02:30:11;;;;;;;;;;;20.40;31.20;;;;;;5109211;28;19920;-68
2023/03/10 02:32:39;;;;;;;;;;;20.40;31.30;;;;;;5108938;28;19947;-68
2023/03/10 02:35:07;;;;;;;;;;;20.40;31.20;;;;;;5109254;28;19924;-68
2023/03/10 02:37:33;;;;;;;;;;;20.50;31.30;;;;;;5109404;28;19920;-70
2023/03/10 02:39:59;;;;;;;;;;;20.50;31.20;;;;;;5108976;28;19970;-69
2023/03/10 02:42:30;;;;;;;;;;;20.50;31.20;;;;;;5109282;28;19920;-69
2023/03/10 02:44:55;;;;;;;;;;;20.50;31.20;;;;;;5109971;28;19965;-68
2023/03/10 02:47:21;;;;;;;;;;;20.50;31.20;;;;;;5142774;27;20341;-68
2023/03/10 02:49:47;;;;;;;;;;;20.50;31.20;;;;;;5108917;28;19920;-68
2023/03/10 02:52:21;;;;;;;;;;;20.60;31.20;;;;;;5108444;28;20379;-68
2023/03/10 02:54:47;;;;;;;;;;;20.60;31.20;;;;;;5108473;28;20382;-69
2023/03/10 02:57:12;;;;;;;;;;;20.60;31.20;;;;;;5108421;28;19919;-68
2023/03/10 02:59:38;;;;;;;;;;;20.60;31.10;;;;;;5108412;28;19920;-68
2023/03/10 03:02:04;;;;;;;;;;;20.60;31.10;;;;;;5108521;28;20010;-68
2023/03/10 03:04:30;;;;;;;;;;;20.60;31.10;;;;;;5142939;27;19920;-69
2023/03/10 03:06:56;;;;;;;;;;;20.60;31.10;;;;;;5108142;28;19924;-68
2023/03/10 03:09:21;;;;;;;;;;;20.60;31.00;;;;;;5108147;28;19931;-68
2023/03/10 03:11:47;;;;;;;;;;;20.60;31.10;;;;;;5108143;28;19931;-68
2023/03/10 03:14:12;;;;;;;;;;;20.60;31.00;;;;;;5109462;28;19926;-68
2023/03/10 03:16:38;;;;;;;;;;;20.60;31.00;;;;;;5108057;28;20010;-70
2023/03/10 03:19:03;;;;;;;;;;;20.60;31.10;;;;;;5108054;28;19931;-69
2023/03/10 03:21:29;;;;;;;;;;;20.60;31.10;;;;;;5108259;28;19973;-68
2023/03/10 03:23:55;;;;;;;;;;;20.60;31.20;;;;;;5108189;28;19927;-68
2023/03/10 03:26:21;;;;;;;;;;;20.60;31.20;;;;;;5119182;28;19931;-68
2023/03/10 03:28:47;;;;;;;;;;;20.50;31.10;;;;;;5111122;28;20383;-69
2023/03/10 03:31:14;;;;;;;;;;;20.50;31.10;;;;;;5129532;28;20037;-68
2023/03/10 03:33:40;;;;;;;;;;;20.50;31.10;;;;;;5111628;28;20381;-69
2023/03/10 03:36:08;;;;;;;;;;;20.60;31.10;;;;;;5129637;28;19928;-69
2023/03/10 03:38:33;;;;;;;;;;;20.60;31.20;;;;;;5099474;28;19926;-68
2023/03/10 03:40:59;;;;;;;;;;;20.50;31.10;;;;;;5097433;28;19920;-68
2023/03/10 03:43:26;;;;;;;;;;;20.50;31.10;;;;;;5097335;28;19926;-70
2023/03/10 03:45:55;;;;;;;;;;;20.50;31.10;;;;;;5131409;27;19927;-69
2023/03/10 03:48:20;;;;;;;;;;;20.70;31.20;;;;;;5131339;27;19920;-70
2023/03/10 03:50:47;;;;;;;;;;;20.50;31.10;;;;;;5097322;28;19920;-69
2023/03/10 03:53:13;;;;;;;;;;;20.50;31.10;;;;;;5097117;28;19920;-69
2023/03/10 03:55:38;;;;;;;;;;;20.50;31.10;;;;;;5097336;28;19926;-69
2023/03/10 03:58:04;;;;;;;;;;;20.50;31.20;;;;;;5097022;28;20346;-69
2023/03/10 04:00:30;;;;;;;;;;;20.60;31.10;;;;;;5097295;28;19919;-68
2023/03/10 04:02:55;;;;;;;;;;;20.50;31.10;;;;;;5096907;28;19968;-67
2023/03/10 04:05:21;;;;;;;;;;;20.50;31.10;;;;;;5115058;28;19923;-67
2023/03/10 04:07:48;;;;;;;;;;;20.60;31.20;;;;;;5097193;28;20030;-68
2023/03/10 04:10:15;;;;;;;;;;;20.50;31.20;;;;;;5115182;28;20371;-68
2023/03/10 04:12:41;;;;;;;;;;;20.60;31.20;;;;;;5097174;28;19920;-68
2023/03/10 04:15:10;;;;;;;;;;;20.50;31.10;;;;;;5097097;28;20292;-69
2023/03/10 04:17:35;;;;;;;;;;;20.50;31.10;;;;;;5096691;28;19920;-68
2023/03/10 04:20:01;;;;;;;;;;;20.60;31.20;;;;;;5096461;28;19926;-70
2023/03/10 04:22:27;;;;;;;;;;;20.60;31.10;;;;;;5096900;28;19919;-68
2023/03/10 04:24:53;;;;;;;;;;;20.60;31.20;;;;;;5096039;28;20363;-68
2023/03/10 04:27:18;;;;;;;;;;;20.50;31.10;;;;;;5096076;28;19930;-68
2023/03/10 04:29:44;;;;;;;;;;;20.60;31.10;;;;;;5114695;28;19985;-69
2023/03/10 04:32:09;;;;;;;;;;;20.60;31.10;;;;;;5114632;28;20291;-68
2023/03/10 04:34:35;;;;;;;;;;;20.60;31.20;;;;;;5114496;28;19919;-69
2023/03/10 04:37:00;;;;;;;;;;;20.60;31.10;;;;;;5096239;28;19925;-67
2023/03/10 04:39:26;;;;;;;;;;;20.60;31.10;;;;;;5096306;28;19920;-70
2023/03/10 04:41:51;;;;;;;;;;;20.60;31.10;;;;;;5096208;28;19998;-68
2023/03/10 04:44:17;;;;;;;;;;;20.60;31.10;;;;;;5096144;28;19959;-68
2023/03/10 04:46:42;;;;;;;;;;;20.50;31.10;;;;;;5096001;28;19932;-68
2023/03/10 04:49:08;;;;;;;;;;;20.60;31.20;;;;;;5113393;28;19926;-68
2023/03/10 04:51:36;;;;;;;;;;;20.60;31.10;;;;;;5096254;28;19923;-68
2023/03/10 04:54:02;;;;;;;;;;;20.60;31.10;;;;;;5095979;28;19924;-68
2023/03/10 04:56:28;;;;;;;;;;;20.60;31.10;;;;;;5114057;28;19923;-69
2023/03/10 04:58:54;;;;;;;;;;;20.60;31.10;;;;;;5114184;28;20367;-68
2023/03/10 05:01:19;;;;;;;;;;;20.60;31.10;;;;;;5114417;28;19919;-68
2023/03/10 05:03:45;;;;;;;;;;;20.60;31.10;;;;;;5129943;27;19926;-68
2023/03/10 05:06:11;;;;;;;;;;;20.60;31.10;;;;;;5129924;27;19924;-68
2023/03/10 05:08:37;;;;;;;;;;;20.60;31.10;;;;;;5129830;27;19967;-68
2023/03/10 05:11:05;;;;;;;;;;;20.60;31.10;;;;;;5114057;28;19970;-68
2023/03/10 05:13:30;;;;;;;;;;;20.60;31.10;;;;;;5130073;27;19926;-69
2023/03/10 05:15:56;;;;;;;;;;;20.60;31.00;;;;;;5095563;28;19920;-68
2023/03/10 05:18:22;;;;;;;;;;;20.70;30.90;;;;;;5114147;28;19919;-68
2023/03/10 05:20:51;;;;;;;;;;;20.80;31.00;;;;;;5129787;27;19931;-68
2023/03/10 05:23:17;;;;;;;;;;;20.80;31.00;;;;;;5095458;28;19926;-68
2023/03/10 05:25:42;;;;;;;;;;;20.80;30.80;;;;;;5113811;28;19924;-68
2023/03/10 05:28:08;;;;;;;;;;;20.80;30.80;;;;;;5113545;28;20328;-68
2023/03/10 05:30:33;;;;;;;;;;;20.90;30.80;;;;;;5095634;28;19920;-70
2023/03/10 05:32:59;;;;;;;;;;;20.90;30.70;;;;;;5129670;27;20355;-68
2023/03/10 05:35:24;;;;;;;;;;;20.90;30.60;;;;;;5129388;27;19920;-70
2023/03/10 05:37:50;;;;;;;;;;;20.90;30.60;;;;;;5113904;28;20023;-70
2023/03/10 05:40:18;;;;;;;;;;;21.00;30.60;;;;;;5095415;28;20253;-68
2023/03/10 05:42:47;;;;;;;;;;;20.90;30.50;;;;;;5095600;28;19920;-68
2023/03/10 05:45:13;;;;;;;;;;;21.00;30.50;;;;;;5094997;28;20019;-68
2023/03/10 05:47:39;;;;;;;;;;;20.90;30.40;;;;;;5113224;28;20014;-68
2023/03/10 05:50:05;;;;;;;;;;;20.90;30.40;;;;;;5113790;28;19980;-68
2023/03/10 05:52:31;;;;;;;;;;;20.90;30.50;;;;;;5095083;28;19950;-68
2023/03/10 05:54:56;;;;;;;;;;;21.00;30.40;;;;;;5113148;28;19963;-68
2023/03/10 05:57:22;;;;;;;;;;;20.90;30.40;;;;;;5113067;28;19927;-68
2023/03/10 05:59:47;;;;;;;;;;;20.90;30.30;;;;;;5113339;28;19920;-69
2023/03/10 06:02:13;;;;;;;;;;;20.90;30.40;;;;;;5094520;28;19920;-69
2023/03/10 06:04:38;;;;;;;;;;;20.90;30.50;;;;;;5077833;28;20015;-68
2023/03/10 06:07:04;;;;;;;;;;;20.90;30.40;;;;;;5094610;28;20022;-68
2023/03/10 06:09:30;;;;;;;;;;;20.90;30.40;;;;;;5094636;28;19927;-68
2023/03/10 06:11:56;;;;;;;;;;;20.80;30.40;;;;;;5094771;28;20401;-68
2023/03/10 06:14:22;;;;;;;;;;;20.90;30.50;;;;;;5094915;28;19974;-70
2023/03/10 06:16:50;;;;;;;;;;;20.90;30.40;;;;;;5113026;28;19962;-70
2023/03/10 06:19:16;;;;;;;;;;;20.80;30.30;;;;;;5094627;28;20401;-68
2023/03/10 06:21:42;;;;;;;;;;;20.80;30.40;;;;;;5112863;28;19920;-70
2023/03/10 06:24:07;;;;;;;;;;;20.80;30.40;;;;;;5094507;28;20440;-68
2023/03/10 06:26:34;;;;;;;;;;;20.80;30.30;;;;;;5094311;28;19945;-68
2023/03/10 06:28:59;;;;;;;;;;;20.80;30.50;;;;;;5112695;28;20382;-68
2023/03/10 06:31:25;;;;;;;;;;;20.80;30.50;;;;;;5112767;28;19919;-72
2023/03/10 06:33:51;;;;;;;;;;;20.70;30.40;;;;;;5094616;28;19927;-68
2023/03/10 06:36:17;;;;;;;;;;;20.70;30.40;;;;;;5094690;28;20325;-70
2023/03/10 06:38:45;;;;;;;;;;;20.70;30.40;;;;;;5093760;28;19921;-69
2023/03/10 06:41:11;;;;;;;;;;;20.70;30.40;;;;;;5092689;28;19926;-67
2023/03/10 06:43:37;;;;;;;;;;;20.80;30.90;;;;;;5092449;28;19919;-73
2023/03/10 06:46:04;;;;;;;;;;;20.80;31.10;;;;;;5092516;28;20001;-67
2023/03/10 06:48:33;;;;;;;;;;;20.80;31.60;;;;;;5092796;28;19920;-74
2023/03/10 06:50:59;;;;;;;;;;;20.70;31.40;;;;;;5092985;28;20405;-74
2023/03/10 06:53:26;;;;;;;;;;;20.80;31.60;;;;;;5093305;28;19919;-67
2023/03/10 06:55:59;;;;;;;;;;;20.70;31.40;;;;;;5091592;28;19920;-74
2023/03/10 06:58:25;;;;;;;;;;;20.70;31.60;;;;;;5092587;28;19980;-71
2023/03/10 07:00:51;;;;;;;;;;;20.70;31.70;;;;;;5093353;28;19920;-74
2023/03/10 07:03:17;;;;;;;;;;;20.80;32.00;;;;;;5085539;28;19970;-74
2023/03/10 07:05:43;;;;;;;;;;;20.90;31.90;;;;;;5079148;28;20332;-74
2023/03/10 07:08:08;;;;;;;;;;;20.90;31.60;;;;;;5102587;28;20410;-74
2023/03/10 07:10:34;;;;;;;;;;;21.10;31.70;;;;;;5091799;28;20299;-75
2023/03/10 07:13:01;;;;;;;;;;;21.10;31.50;;;;;;5106699;28;20358;-74
2023/03/10 07:15:27;;;;;;;;;;;21.30;31.10;;;;;;5096865;28;19961;-74
2023/03/10 07:17:55;;;;;;;;;;;21.40;30.90;;;;;;5073190;28;19927;-75
2023/03/10 07:20:24;;;;;;;;;;;21.60;30.70;;;;;;5088818;27;20306;-75
2023/03/10 07:22:50;;;;;;;;;;;21.60;30.70;;;;;;5092112;28;19947;-75
2023/03/10 07:25:15;;;;;;;;;;;21.60;30.70;;;;;;5108355;27;20366;-75
2023/03/10 07:27:41;;;;;;;;;;;21.70;30.70;;;;;;5069644;28;20394;-74
2023/03/10 07:30:07;;;;;;;;;;;21.70;30.80;;;;;;5077532;28;19988;-75
2023/03/10 07:32:32;;;;;;;;;;;21.60;30.70;;;;;;5111774;27;20415;-72
2023/03/10 07:34:58;;;;;;;;;;;21.60;30.80;;;;;;5105613;27;19928;-76
2023/03/10 07:37:24;;;;;;;;;;;21.60;30.90;;;;;;5078953;28;20026;-73
2023/03/10 07:39:49;;;;;;;;;;;21.60;31.00;;;;;;5072936;28;20375;-73
2023/03/10 07:42:15;;;;;;;;;;;21.40;30.80;;;;;;5070689;28;19924;-71
2023/03/10 07:44:40;;;;;;;;;;;21.20;31.20;;;;;;5074064;28;19920;-72
2023/03/10 07:47:06;;;;;;;;;;;21.10;32.60;;;;;;5091848;28;20235;-72
2023/03/10 07:49:31;;;;;;;;;;;21.10;32.90;;;;;;5079172;28;19924;-72
2023/03/10 07:51:57;;;;;;;;;;;20.90;33.00;;;;;;5076845;28;19981;-73
2023/03/10 07:54:22;;;;;;;;;;;21.00;33.20;;;;;;5072598;28;19975;-72
2023/03/10 07:56:48;;;;;;;;;;;21.00;33.40;;;;;;5072554;28;20394;-73
2023/03/10 07:59:13;;;;;;;;;;;21.00;33.30;;;;;;5072345;28;19931;-76
2023/03/10 08:01:39;;;;;;;;;;;21.10;33.80;;;;;;5074844;28;20275;-70
2023/03/10 08:04:05;;;;;;;;;;;21.10;33.80;;;;;;5074838;28;20569;-71
2023/03/10 08:06:31;;;;;;;;;;;21.20;33.50;;;;;;5107690;27;19930;-77
2023/03/10 08:08:57;;;;;;;;;;;21.20;33.50;;;;;;5070290;28;20006;-73
2023/03/10 08:11:23;;;;;;;;;;;21.20;33.40;;;;;;5073136;28;20391;-70
2023/03/10 08:13:49;;;;;;;;;;;21.30;33.20;;;;;;5077620;28;19928;-69
2023/03/10 08:16:15;;;;;;;;;;;21.30;33.40;;;;;;5107784;27;19924;-73
2023/03/10 08:18:41;;;;;;;;;;;21.30;33.30;;;;;;5081728;28;20639;-72
2023/03/10 08:21:07;;;;;;;;;;;21.30;33.40;;;;;;5108951;27;19919;-79
2023/03/10 08:23:33;;;;;;;;;;;21.20;33.70;;;;;;5074687;28;19931;-76
2023/03/10 08:26:00;;;;;;;;;;;21.30;33.60;;;;;;5084456;28;20322;-80
2023/03/10 08:28:27;;;;;;;;;;;21.30;33.50;;;;;;5074968;28;20462;-73
2023/03/10 08:30:53;;;;;;;;;;;21.30;33.40;;;;;;5072417;28;20045;-71
2023/03/10 08:33:20;;;;;;;;;;;21.30;33.20;;;;;;5071231;28;19930;-74
2023/03/10 08:35:46;;;;;;;;;;;21.30;33.30;;;;;;5071155;28;19932;-69
2023/03/10 08:38:12;;;;;;;;;;;21.40;33.30;;;;;;5069924;28;19931;-68
2023/03/10 08:40:37;;;;;;;;;;;21.30;33.40;;;;;;5070008;28;20027;-72
2023/03/10 08:43:06;;;;;;;;;;;21.40;33.50;;;;;;5091535;28;20368;-74
2023/03/10 08:45:32;;;;;;;;;;;21.40;33.60;;;;;;5074580;28;19930;-68
2023/03/10 08:48:00;;;;;;;;;;;21.40;33.60;;;;;;5077649;28;19920;-68
2023/03/10 08:50:26;;;;;;;;;;;21.40;33.60;;;;;;5076215;28;19932;-74
2023/03/10 08:52:51;;;;;;;;;;;21.40;33.80;;;;;;5073885;28;20287;-72
2023/03/10 08:55:17;;;;;;;;;;;21.30;33.90;;;;;;5091948;28;20728;-73
2023/03/10 08:57:42;;;;;;;;;;;21.30;34.00;;;;;;5075331;28;19924;-67
2023/03/10 09:00:11;;;;;;;;;;;21.20;34.00;;;;;;5093177;28;19931;-70
2023/03/10 09:02:36;;;;;;;;;;;21.20;34.30;;;;;;5076153;28;19920;-71
2023/03/10 09:05:02;;;;;;;;;;;21.10;35.10;;;;;;5092723;28;20276;-76
2023/03/10 09:07:28;;;;;;;;;;;21.10;34.40;;;;;;5075287;28;20394;-74
2023/03/10 09:09:53;;;;;;;;;;;21.00;34.40;;;;;;5081117;28;19928;-72
2023/03/10 09:12:19;;;;;;;;;;;21.00;34.70;;;;;;5077234;28;20466;-70
2023/03/10 09:14:45;;;;;;;;;;;20.90;34.60;;;;;;5072096;28;19944;-72
2023/03/10 09:17:10;;;;;;;;;;;20.90;34.90;;;;;;5072772;28;19943;-75
2023/03/10 09:19:36;;;;;;;;;;;21.00;34.90;;;;;;5105545;27;20268;-80
2023/03/10 09:22:01;;;;;;;;;;;21.00;34.80;;;;;;5075100;28;20359;-76
2023/03/10 09:24:27;;;;;;;;;;;21.00;34.80;;;;;;5075226;28;20826;-75
2023/03/10 09:26:55;;;;;;;;;;;21.10;34.70;;;;;;5075821;28;19928;-70
2023/03/10 09:29:21;;;;;;;;;;;21.10;34.70;;;;;;5092349;28;19927;-68
2023/03/10 09:31:47;;;;;;;;;;;21.20;34.40;;;;;;5093352;28;19935;-68
2023/03/10 09:34:13;;;;;;;;;;;21.00;34.00;;;;;;5073759;28;19924;-69
2023/03/10 09:36:38;;;;;;;;;;;21.10;34.10;;;;;;5072819;28;19974;-68
2023/03/10 09:39:04;;;;;;;;;;;21.00;34.10;;;;;;5079248;28;19924;-70
2023/03/10 09:41:49;;;;;;;;;;;21.00;33.90;;;;;;5077103;28;20336;-68
2023/03/10 09:47:07;;;;;;;;;;;20.80;33.30;;;;;;5108619;27;1910321;-67
2023/03/10 09:49:36;;;;;;;;;;;20.70;33.40;;;;;;5143627;27;19932;-66
2023/03/10 09:52:15;;;;;;;;;;;20.80;34.20;;;;;;5145739;27;19919;-66
2023/03/10 09:54:50;;;;;;;;;;;20.90;34.40;;;;;;5144102;27;19923;-68
2023/03/10 09:57:19;;;;;;;;;;;21.20;34.10;;;;;;5164708;27;20013;-68
2023/03/10 09:59:45;;;;;;;;;;;21.30;34.10;;;;;;5165971;27;19990;-68
2023/03/10 10:02:14;;;;;;;;;;;21.40;34.10;;;;;;5139915;27;19931;-67
2023/03/10 10:04:40;;;;;;;;;;;21.60;33.80;;;;;;5141203;27;19928;-69
2023/03/10 10:07:11;;;;;;;;;;;21.60;33.90;;;;;;5139224;27;19945;-67
2023/03/10 10:09:42;;;;;;;;;;;21.60;34.10;;;;;;5160635;27;19919;-71
2023/03/10 10:12:09;;;;;;;;;;;21.50;34.20;;;;;;5134280;27;20352;-67
2023/03/10 10:14:35;;;;;;;;;;;21.40;34.40;;;;;;5138440;27;19958;-75
2023/03/10 10:17:14;;;;;;;;;;;21.40;34.00;;;;;;5135907;27;20004;-77
2023/03/10 10:19:41;;;;;;;;;;;21.50;33.90;;;;;;5139237;27;19986;-78
2023/03/10 10:22:20;;;;;;;;;;;21.60;34.00;;;;;;5167826;27;19927;-76
2023/03/10 10:24:55;;;;;;;;;;;21.60;34.00;;;;;;5143986;27;19926;-66
2023/03/10 10:27:20;;;;;;;;;;;21.50;33.50;;;;;;5153823;27;20006;-66
2023/03/10 10:29:46;;;;;;;;;;;21.50;33.40;;;;;;5139626;27;20814;-66
2023/03/10 10:32:13;;;;;;;;;;;21.40;33.60;;;;;;5143140;27;20407;-73
2023/03/10 10:34:42;;;;;;;;;;;21.30;33.50;;;;;;5146400;27;19958;-73
2023/03/10 10:37:27;;;;;;;;;;;21.20;33.50;;;;;;5144524;27;19927;-70
2023/03/10 10:39:53;;;;;;;;;;;21.20;33.40;;;;;;5149606;27;19927;-68
2023/03/10 10:45:05;;;;;;;;;;;21.10;33.60;;;;;;5067446;27;1910218;-71
2023/03/10 10:47:33;;;;;;;;;;;21.00;33.50;;;;;;5064815;28;19929;-71
2023/03/10 10:50:18;;;;;;;;;;;21.00;33.70;;;;;;5095547;28;19924;-69
2023/03/10 10:52:47;;;;;;;;;;;20.90;33.70;;;;;;5072445;28;20619;-67
2023/03/10 10:55:23;;;;;;;;;;;20.80;33.70;;;;;;5071250;28;19924;-69
2023/03/10 10:57:57;;;;;;;;;;;20.70;33.70;;;;;;5075599;28;19924;-73
2023/03/10 11:00:25;;;;;;;;;;;20.70;33.70;;;;;;5085696;28;19951;-71
2023/03/10 11:02:51;;;;;;;;;;;20.70;33.70;;;;;;5088991;28;19932;-72
2023/03/10 11:05:19;;;;;;;;;;;20.70;34.50;;;;;;5079486;28;19968;-69
2023/03/10 11:07:44;;;;;;;;;;;20.80;33.70;;;;;;5072767;28;19934;-70
2023/03/10 11:10:12;;;;;;;;;;;20.80;33.50;;;;;;5072960;28;20425;-74
2023/03/10 11:12:44;;;;;;;;;;;20.80;33.40;;;;;;5072668;28;19932;-69
2023/03/10 11:18:23;;;;;;;;;;;20.90;33.30;;;;;;5088936;27;19930;-71
2023/03/10 11:23:33;;;;;;;;;;;21.00;33.10;;;;;;5063952;28;19953;-70
2023/03/10 11:26:14;;;;;;;;;;;21.00;33.00;;;;;;5061037;28;19925;-73
2023/03/10 11:31:30;;;;;;;;;;;21.10;33.60;;;;;;5070717;27;1866630;-74
2023/03/10 11:34:16;;;;;;;;;;;21.10;33.60;;;;;;5111677;27;20285;-70
2023/03/10 11:39:47;;;;;;;;;;;20.90;34.80;;;;;;5063701;27;1883824;-72
2023/03/10 11:42:22;;;;;;;;;;;20.80;33.90;;;;;;5093720;27;19924;-73
2023/03/10 11:44:56;;;;;;;;;;;20.80;34.50;;;;;;5106333;27;19928;-69
2023/03/10 11:47:41;;;;;;;;;;;20.70;34.50;;;;;;5118981;27;19923;-69
2023/03/10 11:50:18;;;;;;;;;;;20.80;35.40;;;;;;5098503;27;19929;-75
2023/03/10 11:52:44;;;;;;;;;;;20.80;35.90;;;;;;5094579;27;19928;-71
2023/03/10 11:55:16;;;;;;;;;;;20.90;35.90;;;;;;5101121;27;20268;-73
2023/03/10 11:57:44;;;;;;;;;;;21.00;35.50;;;;;;5104403;27;19928;-69
2023/03/10 12:00:20;;;;;;;;;;;21.20;35.70;;;;;;5105931;27;19928;-69
2023/03/10 12:02:55;;;;;;;;;;;21.20;35.30;;;;;;5108937;27;20371;-68
2023/03/10 12:05:22;;;;;;;;;;;21.20;35.00;;;;;;5120266;27;19935;-69
2023/03/10 12:07:51;;;;;;;;;;;21.00;35.00;;;;;;5116547;27;20413;-68
2023/03/10 12:10:18;;;;;;;;;;;21.00;35.20;;;;;;5097798;27;20705;-72
2023/03/10 12:12:45;;;;;;;;;;;21.00;35.80;;;;;;5100816;27;19927;-69
2023/03/10 12:15:15;;;;;;;;;;;21.00;35.70;;;;;;5087505;28;19994;-76
2023/03/10 12:17:41;;;;;;;;;;;21.10;35.10;;;;;;5099079;27;20022;-71
2023/03/10 12:22:50;;;;;;;;;;;21.30;35.30;;;;;;5051989;28;20156;-73
2023/03/10 12:25:37;;;;;;;;;;;21.20;35.10;;;;;;5051735;28;20244;-68
2023/03/10 12:30:49;;;;;;;;;;;21.10;35.60;;;;;;5104039;27;1870471;-69
2023/03/10 12:41:41;;;;;;;;;;;21.10;35.80;;;;;;5067261;28;19949;-67
2023/03/10 12:44:26;;;;;;;;;;;21.10;35.60;;;;;;5064562;28;19936;-68
2023/03/10 12:46:59;;;;;;;;;;;21.20;35.80;;;;;;5085221;28;20031;-66
2023/03/10 12:49:32;;;;;;;;;;;21.20;35.90;;;;;;5074714;28;20465;-78
2023/03/10 12:52:06;;;;;;;;;;;21.10;35.70;;;;;;5078016;28;19925;-67
2023/03/10 12:54:51;;;;;;;;;;;21.20;35.70;;;;;;5059904;28;19973;-68
2023/03/10 12:59:57;;;;;;;;;;;21.30;35.60;;;;;;5083824;27;1871675;-74
2023/03/10 13:02:27;;;;;;;;;;;21.20;35.70;;;;;;5140819;27;20424;-67
2023/03/10 13:04:57;;;;;;;;;;;21.10;35.80;;;;;;5128149;27;20590;-67
2023/03/10 13:07:23;;;;;;;;;;;21.20;35.90;;;;;;5132667;27;20635;-68
2023/03/10 13:09:49;;;;;;;;;;;21.20;35.90;;;;;;5131961;27;19927;-67
2023/03/10 13:14:59;;;;;;;;;;;21.10;35.80;;;;;;5092472;27;19916;-73
2023/03/10 13:17:26;;;;;;;;;;;21.10;35.80;;;;;;5116137;27;20498;-69
2023/03/10 13:20:07;;;;;;;;;;;21.10;35.90;;;;;;5085603;28;19927;-68
2023/03/10 13:22:33;;;;;;;;;;;21.30;36.00;;;;;;5120174;27;20575;-69
2023/03/10 13:25:00;;;;;;;;;;;21.10;35.90;;;;;;5083749;28;19939;-68
2023/03/10 13:27:27;;;;;;;;;;;21.00;35.90;;;;;;5088280;28;19928;-69
2023/03/10 13:32:33;;;;;;;;;;;21.00;36.10;;;;;;4943984;27;4807472;-67
2023/03/10 13:35:10;;;;;;;;;;;21.10;36.20;;;;;;5113126;27;19919;-68
2023/03/10 13:37:36;;;;;;;;;;;21.00;36.00;;;;;;5133075;27;20543;-71
2023/03/10 13:40:06;;;;;;;;;;;20.90;35.90;;;;;;5117075;27;19930;-68
2023/03/10 13:42:31;;;;;;;;;;;20.90;35.80;;;;;;5114869;27;19920;-68
2023/03/10 13:44:57;;;;;;;;;;;20.90;35.90;;;;;;5130106;27;20405;-68
2023/03/10 13:47:23;;;;;;;;;;;20.80;35.70;;;;;;5109056;27;19927;-68
2023/03/10 13:49:51;;;;;;;;;;;20.80;35.70;;;;;;5136736;27;19960;-70
2023/03/10 13:52:18;;;;;;;;;;;20.80;35.60;;;;;;5114912;27;19970;-68
2023/03/10 13:54:44;;;;;;;;;;;20.80;35.50;;;;;;5119418;27;20030;-70
2023/03/10 13:59:52;;;;;;;;;;;20.80;35.30;;;;;;5061498;28;20489;-67
2023/03/10 14:02:28;;;;;;;;;;;20.90;35.20;;;;;;5080300;28;19924;-69
2023/03/10 14:04:54;;;;;;;;;;;20.90;35.20;;;;;;5076754;28;19967;-70
2023/03/10 14:07:22;;;;;;;;;;;20.90;35.10;;;;;;5063118;28;20339;-70
2023/03/10 14:10:11;;;;;;;;;;;20.90;35.10;;;;;;5062381;28;20003;-69
2023/03/10 14:12:41;;;;;;;;;;;20.90;35.20;;;;;;5071628;28;19956;-71
2023/03/10 14:15:09;;;;;;;;;;;21.00;35.20;;;;;;5054813;28;19929;-71
2023/03/10 14:17:34;;;;;;;;;;;21.00;35.20;;;;;;5061133;28;19943;-70
2023/03/10 14:20:00;;;;;;;;;;;21.00;35.10;;;;;;5060397;28;20372;-70
2023/03/10 14:22:28;;;;;;;;;;;21.00;35.00;;;;;;5065667;28;20391;-70
2023/03/10 14:24:54;;;;;;;;;;;21.00;34.90;;;;;;5066531;28;20327;-69
2023/03/10 14:27:20;;;;;;;;;;;21.00;34.90;;;;;;5065485;28;20104;-70
2023/03/10 14:29:48;;;;;;;;;;;21.00;34.80;;;;;;5063269;28;20300;-70
2023/03/10 14:32:14;;;;;;;;;;;21.00;34.70;;;;;;5064207;28;19950;-71
2023/03/10 14:34:40;;;;;;;;;;;21.10;34.70;;;;;;5063853;28;20015;-70
2023/03/10 14:37:06;;;;;;;;;;;21.00;34.60;;;;;;5063085;28;20464;-70
2023/03/10 14:39:33;;;;;;;;;;;21.00;34.60;;;;;;5063273;28;19936;-71
2023/03/10 14:42:01;;;;;;;;;;;21.00;34.50;;;;;;5063412;28;19920;-71
2023/03/10 14:44:27;;;;;;;;;;;21.00;34.40;;;;;;5062181;28;20338;-75
2023/03/10 14:46:53;;;;;;;;;;;21.10;34.40;;;;;;5075030;28;19927;-75
2023/03/10 14:49:21;;;;;;;;;;;21.00;34.20;;;;;;5063703;28;19916;-77
2023/03/10 14:51:47;;;;;;;;;;;20.90;34.20;;;;;;5058035;28;19920;-73
2023/03/10 14:54:17;;;;;;;;;;;20.90;34.20;;;;;;5065055;28;19925;-73
2023/03/10 14:56:42;;;;;;;;;;;20.90;34.20;;;;;;5066449;28;19927;-72
2023/03/10 14:59:10;;;;;;;;;;;20.90;34.20;;;;;;5064149;28;20019;-69
2023/03/10 15:01:36;;;;;;;;;;;20.90;34.10;;;;;;5066270;28;19927;-72
2023/03/10 15:04:01;;;;;;;;;;;21.00;34.00;;;;;;5064642;28;19921;-74
2023/03/10 15:06:27;;;;;;;;;;;21.00;34.00;;;;;;5065868;28;19974;-75
2023/03/10 15:08:53;;;;;;;;;;;20.90;34.00;;;;;;5062282;28;20266;-68